createdAt,value
2017-08-29T00:02:00.496Z,7.93
2017-08-29T00:04:01.436Z,6.90
2017-08-29T00:06:02.388Z,5.53
2017-08-29T00:08:03.564Z,6.77
2017-08-29T00:10:04.513Z,4.60
2017-08-29T00:12:05.464Z,7.20
2017-08-29T00:14:06.416Z,11.37
2017-08-29T00:16:07.352Z,10.10
2017-08-29T00:18:08.299Z,7.70
2017-08-29T00:20:09.260Z,5.53
2017-08-29T00:22:10.202Z,5.53
2017-08-29T00:24:11.133Z,5.70
2017-08-29T00:26:12.079Z,8.63
2017-08-29T00:28:13.025Z,4.80
2017-08-29T00:30:13.963Z,7.23
2017-08-29T00:32:14.909Z,8.05
2017-08-29T00:34:15.871Z,5.40
2017-08-29T00:36:16.817Z,10.13
2017-08-29T00:38:17.764Z,10.70
2017-08-29T00:40:18.838Z,8.17
2017-08-29T00:42:19.784Z,8.83
2017-08-29T00:44:20.724Z,8.37
2017-08-29T00:46:21.678Z,9.73
2017-08-29T00:48:22.635Z,10.87
2017-08-29T00:50:23.572Z,17.80
2017-08-29T00:52:24.520Z,11.13
2017-08-29T00:54:25.478Z,8.27
2017-08-29T00:56:26.417Z,9.60
2017-08-29T00:58:27.360Z,11.00
2017-08-29T01:00:28.359Z,5.57
2017-08-29T01:02:29.299Z,8.70
2017-08-29T01:04:30.261Z,12.37
2017-08-29T01:06:31.204Z,13.70
2017-08-29T01:08:32.160Z,6.07
2017-08-29T01:10:33.134Z,6.23
2017-08-29T01:12:34.144Z,8.33
2017-08-29T01:14:35.087Z,8.83
2017-08-29T01:16:36.019Z,6.90
2017-08-29T01:18:36.963Z,8.60
2017-08-29T01:20:37.914Z,10.40
2017-08-29T01:22:38.869Z,5.97
2017-08-29T01:24:39.824Z,12.10
2017-08-29T01:26:40.773Z,5.77
2017-08-29T01:28:41.716Z,6.20
2017-08-29T01:30:42.685Z,7.23
2017-08-29T01:32:43.633Z,8.67
2017-08-29T01:34:44.629Z,9.63
2017-08-29T01:36:45.596Z,5.10
2017-08-29T01:38:46.547Z,5.37
2017-08-29T01:40:47.506Z,5.13
2017-08-29T01:42:48.489Z,7.77
2017-08-29T01:44:49.456Z,10.07
2017-08-29T01:46:50.419Z,8.93
2017-08-29T01:48:51.396Z,7.80
2017-08-29T01:50:52.354Z,11.70
2017-08-29T01:52:53.304Z,6.30
2017-08-29T01:54:54.377Z,6.00
2017-08-29T01:56:55.331Z,8.63
2017-08-29T01:58:56.281Z,8.10
2017-08-29T02:00:57.248Z,9.37
2017-08-29T02:05:23.769Z,5.97
2017-08-29T02:07:24.737Z,14.33
2017-08-29T02:09:25.750Z,7.67
2017-08-29T02:11:26.721Z,7.83
2017-08-29T02:13:27.663Z,8.33
2017-08-29T02:15:28.625Z,5.83
2017-08-29T02:17:29.555Z,13.50
2017-08-29T02:19:30.496Z,6.20
2017-08-29T02:21:38.540Z,15.10
2017-08-29T02:23:39.480Z,5.57
2017-08-29T02:25:40.417Z,7.23
2017-08-29T02:27:41.364Z,8.63
2017-08-29T02:29:42.296Z,10.20
2017-08-29T02:31:43.247Z,10.03
2017-08-29T02:33:44.181Z,9.90
2017-08-29T02:35:45.118Z,8.70
2017-08-29T02:37:46.056Z,6.70
2017-08-29T02:39:46.987Z,8.53
2017-08-29T02:41:47.924Z,6.10
2017-08-29T02:43:48.863Z,8.17
2017-08-29T02:45:49.808Z,9.63
2017-08-29T02:47:50.756Z,6.73
2017-08-29T02:49:51.692Z,7.13
2017-08-29T02:51:52.649Z,5.73
2017-08-29T02:53:53.597Z,9.17
2017-08-29T02:55:54.541Z,7.73
2017-08-29T02:57:55.496Z,8.37
2017-08-29T02:59:56.437Z,9.23
2017-08-29T03:01:57.394Z,9.63
2017-08-29T03:03:58.339Z,11.57
2017-08-29T03:05:59.276Z,6.47
2017-08-29T03:08:00.232Z,8.60
2017-08-29T03:10:01.180Z,9.20
2017-08-29T03:12:02.132Z,8.30
2017-08-29T03:14:03.069Z,10.67
2017-08-29T03:16:04.024Z,10.80
2017-08-29T03:18:04.984Z,6.93
2017-08-29T03:20:05.916Z,8.17
2017-08-29T03:22:06.863Z,9.70
2017-08-29T03:24:07.811Z,7.03
2017-08-29T03:26:08.739Z,8.18
2017-08-29T03:28:09.694Z,6.60
2017-08-29T03:30:10.641Z,9.47
2017-08-29T03:32:11.595Z,10.77
2017-08-29T03:34:12.532Z,8.03
2017-08-29T03:36:13.465Z,12.60
2017-08-29T03:38:14.408Z,14.10
2017-08-29T03:40:15.356Z,10.23
2017-08-29T03:42:16.312Z,6.90
2017-08-29T03:44:17.248Z,10.50
2017-08-29T03:46:18.185Z,6.00
2017-08-29T03:48:19.134Z,6.50
2017-08-29T03:50:20.075Z,9.77
2017-08-29T03:52:21.012Z,10.67
2017-08-29T03:54:21.970Z,5.77
2017-08-29T03:56:22.908Z,8.27
2017-08-29T03:58:23.853Z,8.47
2017-08-29T04:00:24.803Z,8.13
2017-08-29T04:02:25.751Z,9.20
2017-08-29T04:04:26.688Z,11.90
2017-08-29T04:06:27.625Z,12.97
2017-08-29T04:08:28.559Z,7.43
2017-08-29T04:10:29.509Z,10.07
2017-08-29T04:12:30.445Z,7.30
2017-08-29T04:14:31.396Z,6.90
2017-08-29T04:16:32.333Z,8.43
2017-08-29T04:18:33.264Z,11.27
2017-08-29T04:20:34.209Z,11.23
2017-08-29T04:22:35.144Z,8.73
2017-08-29T04:24:36.120Z,9.67
2017-08-29T04:26:37.065Z,10.50
2017-08-29T04:28:38.012Z,7.00
2017-08-29T04:30:38.976Z,10.90
2017-08-29T04:32:39.928Z,9.07
2017-08-29T04:34:40.856Z,7.10
2017-08-29T04:36:41.792Z,5.80
2017-08-29T04:38:42.728Z,11.90
2017-08-29T04:40:43.685Z,7.17
2017-08-29T04:42:44.639Z,9.53
2017-08-29T04:44:45.587Z,7.07
2017-08-29T04:46:46.536Z,6.50
2017-08-29T04:48:47.471Z,9.23
2017-08-29T04:50:48.425Z,8.73
2017-08-29T04:52:49.360Z,7.53
2017-08-29T04:54:50.361Z,6.25
2017-08-29T04:56:51.304Z,11.40
2017-08-29T04:58:52.244Z,8.97
2017-08-29T05:00:53.239Z,10.23
2017-08-29T05:02:54.208Z,7.93
2017-08-29T05:04:55.163Z,11.40
2017-08-29T05:06:56.103Z,6.00
2017-08-29T05:08:57.038Z,9.13
2017-08-29T05:10:57.999Z,7.93
2017-08-29T05:12:58.945Z,17.10
2017-08-29T05:15:00.076Z,13.10
2017-08-29T05:17:01.012Z,13.43
2017-08-29T05:19:01.944Z,15.60
2017-08-29T05:21:02.895Z,10.07
2017-08-29T05:23:03.833Z,11.53
2017-08-29T05:25:04.776Z,15.40
2017-08-29T05:27:05.724Z,8.60
2017-08-29T05:29:06.680Z,10.97
2017-08-29T05:31:07.897Z,6.23
2017-08-29T05:33:08.848Z,18.13
2017-08-29T05:35:09.813Z,9.13
2017-08-29T05:37:10.767Z,11.33
2017-08-29T05:39:11.715Z,13.20
2017-08-29T05:41:12.664Z,8.23
2017-08-29T05:43:13.656Z,9.97
2017-08-29T05:45:14.614Z,15.73
2017-08-29T05:47:15.551Z,10.27
2017-08-29T05:49:16.501Z,13.27
2017-08-29T05:51:17.445Z,9.03
2017-08-29T05:53:18.411Z,22.40
2017-08-29T05:55:19.354Z,9.13
2017-08-29T05:57:20.312Z,49.30
2017-08-29T05:59:21.250Z,29.47
2017-08-29T06:01:22.195Z,13.40
2017-08-29T06:03:23.379Z,13.00
2017-08-29T06:05:24.319Z,9.33
2017-08-29T06:07:25.285Z,10.23
2017-08-29T06:09:26.220Z,7.93
2017-08-29T06:11:27.488Z,15.23
2017-08-29T06:13:28.423Z,8.00
2017-08-29T06:15:29.353Z,9.10
2017-08-29T06:17:30.289Z,8.03
2017-08-29T06:19:31.228Z,6.60
2017-08-29T06:21:32.169Z,5.70
2017-08-29T06:23:33.107Z,9.70
2017-08-29T06:25:34.052Z,5.70
2017-08-29T06:27:34.976Z,11.50
2017-08-29T06:29:35.927Z,5.30
2017-08-29T06:31:36.864Z,9.10
2017-08-29T06:33:37.811Z,8.10
2017-08-29T06:35:38.748Z,9.33
2017-08-29T06:37:39.679Z,5.37
2017-08-29T06:39:40.629Z,5.40
2017-08-29T06:41:41.560Z,7.57
2017-08-29T06:43:42.496Z,7.30
2017-08-29T06:45:43.439Z,6.10
2017-08-29T06:47:44.368Z,9.13
2017-08-29T06:49:45.301Z,7.30
2017-08-29T06:51:46.245Z,11.13
2017-08-29T06:53:47.183Z,11.10
2017-08-29T06:55:48.127Z,5.90
2017-08-29T06:57:49.060Z,8.60
2017-08-29T06:59:50.012Z,10.47
2017-08-29T07:01:50.956Z,13.87
2017-08-29T07:03:51.891Z,6.80
2017-08-29T07:05:52.860Z,8.20
2017-08-29T07:07:53.865Z,6.30
2017-08-29T07:09:54.800Z,7.90
2017-08-29T07:11:55.753Z,8.37
2017-08-29T07:13:56.703Z,7.13
2017-08-29T07:15:57.652Z,10.27
2017-08-29T07:17:58.588Z,8.50
2017-08-29T07:19:59.532Z,8.00
2017-08-29T07:22:00.463Z,7.50
2017-08-29T07:24:08.519Z,8.30
2017-08-29T07:26:09.460Z,5.43
2017-08-29T07:28:10.382Z,9.33
2017-08-29T07:30:11.312Z,9.03
2017-08-29T07:32:12.261Z,5.53
2017-08-29T07:34:13.200Z,7.97
2017-08-29T07:36:14.131Z,6.03
2017-08-29T07:38:15.069Z,6.07
2017-08-29T07:40:16.008Z,13.40
2017-08-29T07:42:17.001Z,9.50
2017-08-29T07:44:17.927Z,7.47
2017-08-29T07:46:18.975Z,4.70
2017-08-29T07:48:19.910Z,7.67
2017-08-29T07:50:20.852Z,7.27
2017-08-29T07:52:21.792Z,13.90
2017-08-29T07:54:22.716Z,8.40
2017-08-29T07:56:23.649Z,11.23
2017-08-29T07:58:24.581Z,8.85
2017-08-29T08:00:25.524Z,10.93
2017-08-29T08:02:26.468Z,7.40
2017-08-29T08:04:27.399Z,7.03
2017-08-29T08:06:28.331Z,15.03
2017-08-29T08:08:29.272Z,8.73
2017-08-29T08:10:30.213Z,6.93
2017-08-29T08:12:31.156Z,8.70
2017-08-29T08:14:32.836Z,7.50
2017-08-29T08:16:33.791Z,6.63
2017-08-29T08:18:34.720Z,14.53
2017-08-29T08:20:35.803Z,9.60
2017-08-29T08:22:36.732Z,9.83
2017-08-29T08:24:37.659Z,11.30
2017-08-29T08:26:38.592Z,10.43
2017-08-29T08:28:39.535Z,14.53
2017-08-29T08:30:40.461Z,10.03
2017-08-29T08:32:41.526Z,7.50
2017-08-29T08:34:42.459Z,8.33
2017-08-29T08:36:43.384Z,8.50
2017-08-29T08:38:44.319Z,9.30
2017-08-29T08:40:45.245Z,15.73
2017-08-29T08:42:46.185Z,13.73
2017-08-29T08:44:47.109Z,10.07
2017-08-29T08:46:48.040Z,18.30
2017-08-29T08:48:48.971Z,10.80
2017-08-29T08:50:49.892Z,8.80
2017-08-29T08:52:50.988Z,15.47
2017-08-29T08:54:51.912Z,14.13
2017-08-29T08:56:52.844Z,8.83
2017-08-29T08:58:53.772Z,8.47
2017-08-29T09:00:54.707Z,10.90
2017-08-29T09:02:55.635Z,11.33
2017-08-29T09:04:56.572Z,13.07
2017-08-29T09:06:57.495Z,14.00
2017-08-29T09:08:58.489Z,17.63
2017-08-29T09:10:59.423Z,12.33
2017-08-29T09:13:00.355Z,11.53
2017-08-29T09:15:01.286Z,8.30
2017-08-29T09:17:02.328Z,11.53
2017-08-29T09:19:03.277Z,9.40
2017-08-29T09:21:04.224Z,8.93
2017-08-29T09:23:05.161Z,12.80
2017-08-29T09:25:06.135Z,18.40
2017-08-29T09:27:07.059Z,10.65
2017-08-29T09:29:07.996Z,13.27
2017-08-29T09:31:08.933Z,10.97
2017-08-29T09:33:09.875Z,11.33
2017-08-29T09:35:10.803Z,13.07
2017-08-29T09:37:11.728Z,16.20
2017-08-29T09:39:12.668Z,12.83
2017-08-29T09:41:13.669Z,14.13
2017-08-29T09:43:14.676Z,14.90
2017-08-29T09:45:15.606Z,17.77
2017-08-29T09:47:16.528Z,14.00
2017-08-29T09:49:17.460Z,17.17
2017-08-29T09:51:18.387Z,14.90
2017-08-29T09:53:26.303Z,16.20
2017-08-29T09:55:27.232Z,12.27
2017-08-29T09:57:28.163Z,23.47
2017-08-29T09:59:29.108Z,13.07
2017-08-29T10:01:30.049Z,12.87
2017-08-29T10:03:30.983Z,15.83
2017-08-29T10:05:31.940Z,17.37
2017-08-29T10:07:32.889Z,15.57
2017-08-29T10:09:33.935Z,13.33
2017-08-29T10:11:34.859Z,17.90
2017-08-29T10:13:35.800Z,15.97
2017-08-29T10:15:36.752Z,14.43
2017-08-29T10:17:37.685Z,18.00
2017-08-29T10:19:38.616Z,16.47
2017-08-29T10:21:39.543Z,16.73
2017-08-29T10:23:40.480Z,13.47
2017-08-29T10:25:41.417Z,17.97
2017-08-29T10:27:42.348Z,13.93
2017-08-29T10:29:43.288Z,19.33
2017-08-29T10:31:44.235Z,20.20
2017-08-29T10:33:45.175Z,13.77
2017-08-29T10:35:46.114Z,13.03
2017-08-29T10:37:47.065Z,20.93
2017-08-29T10:39:48.008Z,20.33
2017-08-29T10:41:48.933Z,15.10
2017-08-29T10:43:49.864Z,12.33
2017-08-29T10:45:50.804Z,12.50
2017-08-29T10:47:51.752Z,22.40
2017-08-29T10:49:52.712Z,17.67
2017-08-29T10:51:53.672Z,20.00
2017-08-29T10:53:54.617Z,15.23
2017-08-29T10:55:55.568Z,13.50
2017-08-29T10:57:56.501Z,12.40
2017-08-29T10:59:57.443Z,12.00
2017-08-29T11:02:05.363Z,17.80
2017-08-29T11:04:06.307Z,14.33
2017-08-29T11:06:07.243Z,23.93
2017-08-29T11:08:08.176Z,16.43
2017-08-29T11:10:09.116Z,23.60
2017-08-29T11:12:10.040Z,13.27
2017-08-29T11:14:10.977Z,12.67
2017-08-29T11:16:11.917Z,14.83
2017-08-29T11:18:12.849Z,13.90
2017-08-29T11:20:13.828Z,13.30
2017-08-29T11:22:14.791Z,12.07
2017-08-29T11:24:15.727Z,13.73
2017-08-29T11:26:16.667Z,16.87
2017-08-29T11:28:17.599Z,13.53
2017-08-29T11:30:18.536Z,16.80
2017-08-29T11:32:19.484Z,15.50
2017-08-29T11:34:20.429Z,11.00
2017-08-29T11:36:21.371Z,14.30
2017-08-29T11:38:22.321Z,22.27
2017-08-29T11:40:23.259Z,19.73
2017-08-29T11:42:24.195Z,12.67
2017-08-29T11:44:25.137Z,18.10
2017-08-29T11:46:26.075Z,17.80
2017-08-29T11:48:27.012Z,11.63
2017-08-29T11:50:27.958Z,12.40
2017-08-29T11:52:28.921Z,14.80
2017-08-29T11:54:29.988Z,13.87
2017-08-29T11:56:30.928Z,13.57
2017-08-29T11:58:31.878Z,19.40
2017-08-29T12:00:33.006Z,12.57
2017-08-29T12:02:33.965Z,12.30
2017-08-29T12:04:34.904Z,15.20
2017-08-29T12:06:35.868Z,15.23
2017-08-29T12:08:36.964Z,12.87
2017-08-29T12:10:37.892Z,13.00
2017-08-29T12:12:38.835Z,13.73
2017-08-29T12:14:39.760Z,22.17
2017-08-29T12:16:40.684Z,16.20
2017-08-29T12:18:41.629Z,16.55
2017-08-29T12:20:42.564Z,16.77
2017-08-29T12:22:43.513Z,14.73
2017-08-29T12:24:44.440Z,16.80
2017-08-29T12:26:45.380Z,16.53
2017-08-29T12:28:46.317Z,14.63
2017-08-29T12:30:47.246Z,14.23
2017-08-29T12:32:48.180Z,27.87
2017-08-29T12:34:49.105Z,22.27
2017-08-29T12:36:50.042Z,19.43
2017-08-29T12:38:50.967Z,17.80
2017-08-29T12:40:52.123Z,20.03
2017-08-29T12:42:53.059Z,14.50
2017-08-29T12:44:53.988Z,17.43
2017-08-29T12:46:54.925Z,17.10
2017-08-29T12:48:55.869Z,16.30
2017-08-29T12:50:56.793Z,16.13
2017-08-29T12:52:57.721Z,16.27
2017-08-29T12:54:58.672Z,23.23
2017-08-29T12:56:59.600Z,14.03
2017-08-29T12:59:00.532Z,14.37
2017-08-29T13:01:01.567Z,16.40
2017-08-29T13:03:02.498Z,12.60
2017-08-29T13:05:03.555Z,12.10
2017-08-29T13:07:04.569Z,17.27
2017-08-29T13:09:05.511Z,13.70
2017-08-29T13:11:06.433Z,14.30
2017-08-29T13:13:07.606Z,10.20
2017-08-29T13:15:08.543Z,12.60
2017-08-29T13:17:09.471Z,11.17
2017-08-29T13:19:10.413Z,11.97
2017-08-29T13:21:11.352Z,20.83
2017-08-29T13:23:12.283Z,13.63
2017-08-29T13:25:13.239Z,23.63
2017-08-29T13:27:14.170Z,10.67
2017-08-29T13:29:15.224Z,12.07
2017-08-29T13:31:16.166Z,18.73
2017-08-29T13:33:17.083Z,12.67
2017-08-29T13:35:18.015Z,12.03
2017-08-29T13:37:19.001Z,16.80
2017-08-29T13:39:20.020Z,15.50
2017-08-29T13:41:20.973Z,12.53
2017-08-29T13:43:21.909Z,17.40
2017-08-29T13:45:22.880Z,14.90
2017-08-29T13:47:23.809Z,15.93
2017-08-29T13:49:24.740Z,16.40
2017-08-29T13:51:25.679Z,14.07
2017-08-29T13:53:26.616Z,12.30
2017-08-29T13:55:27.553Z,13.90
2017-08-29T13:57:28.486Z,11.97
2017-08-29T13:59:29.494Z,11.50
2017-08-29T14:01:30.432Z,16.93
2017-08-29T14:03:31.369Z,13.23
2017-08-29T14:05:32.312Z,12.07
2017-08-29T14:07:33.252Z,10.23
2017-08-29T14:09:34.198Z,10.60
2017-08-29T14:11:35.121Z,11.57
2017-08-29T14:13:36.052Z,12.70
2017-08-29T14:15:36.988Z,9.90
2017-08-29T14:17:38.112Z,14.43
2017-08-29T14:19:39.043Z,10.87
2017-08-29T14:21:39.981Z,14.10
2017-08-29T14:23:40.921Z,11.77
2017-08-29T14:25:41.860Z,14.17
2017-08-29T14:27:42.792Z,12.00
2017-08-29T14:29:43.817Z,11.40
2017-08-29T14:31:44.740Z,22.67
2017-08-29T14:33:45.677Z,10.03
2017-08-29T14:35:46.603Z,16.53
2017-08-29T14:37:47.539Z,12.93
2017-08-29T14:39:48.476Z,10.60
2017-08-29T14:41:49.416Z,10.00
2017-08-29T14:43:50.344Z,16.40
2017-08-29T14:45:51.280Z,15.70
2017-08-29T14:48:04.655Z,11.23
2017-08-29T14:50:05.592Z,9.77
2017-08-29T14:52:06.552Z,20.37
2017-08-29T14:54:07.487Z,13.50
2017-08-29T14:56:08.424Z,10.13
2017-08-29T14:58:09.358Z,13.70
2017-08-29T15:00:10.317Z,13.45
2017-08-29T15:02:11.254Z,16.40
2017-08-29T15:04:12.184Z,20.83
2017-08-29T15:06:13.125Z,10.83
2017-08-29T15:08:14.059Z,10.97
2017-08-29T15:10:15.204Z,12.17
2017-08-29T15:12:16.135Z,10.80
2017-08-29T15:14:17.067Z,9.67
2017-08-29T15:16:17.999Z,13.00
2017-08-29T15:18:18.924Z,9.80
2017-08-29T15:20:19.860Z,14.07
2017-08-29T15:22:20.797Z,12.70
2017-08-29T15:24:21.729Z,16.80
2017-08-29T15:26:22.661Z,12.53
2017-08-29T15:28:23.600Z,13.10
2017-08-29T15:30:24.555Z,11.47
2017-08-29T15:32:25.487Z,13.13
2017-08-29T15:34:26.433Z,17.00
2017-08-29T15:36:27.380Z,11.60
2017-08-29T15:38:28.324Z,15.60
2017-08-29T15:40:29.272Z,15.60
2017-08-29T15:42:30.452Z,10.50
2017-08-29T15:44:31.412Z,13.23
2017-08-29T15:46:32.372Z,14.13
2017-08-29T15:48:33.316Z,23.40
2017-08-29T15:50:34.256Z,18.33
2017-08-29T15:52:35.191Z,20.07
2017-08-29T15:54:36.124Z,15.30
2017-08-29T15:56:37.068Z,16.80
2017-08-29T15:58:38.021Z,20.73
2017-08-29T16:00:38.969Z,14.83
2017-08-29T16:02:39.899Z,17.93
2017-08-29T16:04:40.831Z,16.00
2017-08-29T16:06:41.770Z,11.20
2017-08-29T16:08:42.707Z,13.80
2017-08-29T16:10:43.651Z,10.50
2017-08-29T16:12:44.588Z,11.40
2017-08-29T16:14:45.621Z,11.50
2017-08-29T16:16:46.568Z,10.93
2017-08-29T16:18:47.509Z,11.50
2017-08-29T16:20:48.448Z,9.75
2017-08-29T16:22:49.384Z,9.93
2017-08-29T16:24:50.319Z,23.50
2017-08-29T16:26:51.249Z,10.43
2017-08-29T16:28:52.216Z,9.90
2017-08-29T16:30:53.168Z,16.53
2017-08-29T16:32:54.111Z,11.10
2017-08-29T16:34:55.047Z,11.90
2017-08-29T16:36:55.997Z,9.47
2017-08-29T16:38:56.932Z,12.53
2017-08-29T16:40:57.859Z,10.57
2017-08-29T16:42:58.821Z,14.13
2017-08-29T16:44:59.761Z,9.70
2017-08-29T16:47:00.803Z,15.63
2017-08-29T16:49:01.752Z,12.37
2017-08-29T16:51:02.688Z,12.90
2017-08-29T16:53:03.627Z,14.47
2017-08-29T16:55:04.573Z,12.63
2017-08-29T16:57:05.509Z,12.60
2017-08-29T16:59:06.452Z,14.60
2017-08-29T17:01:07.388Z,14.90
2017-08-29T17:03:08.344Z,14.93
2017-08-29T17:05:09.308Z,12.23
2017-08-29T17:07:10.258Z,11.83
2017-08-29T17:09:11.200Z,14.67
2017-08-29T17:11:12.140Z,11.20
2017-08-29T17:13:13.086Z,11.70
2017-08-29T17:15:14.035Z,19.30
2017-08-29T17:17:15.020Z,12.13
2017-08-29T17:19:15.975Z,12.83
2017-08-29T17:21:16.911Z,9.57
2017-08-29T17:23:17.853Z,11.77
2017-08-29T17:25:18.778Z,10.70
2017-08-29T17:27:19.706Z,13.10
2017-08-29T17:29:20.691Z,15.30
2017-08-29T17:31:21.645Z,19.33
2017-08-29T17:33:22.580Z,13.40
2017-08-29T17:35:23.517Z,10.33
2017-08-29T17:37:24.461Z,17.50
2017-08-29T17:39:25.408Z,13.63
2017-08-29T17:41:26.366Z,9.83
2017-08-29T17:43:27.312Z,12.23
2017-08-29T17:45:28.256Z,12.20
2017-08-29T17:47:29.187Z,11.97
2017-08-29T17:49:30.133Z,12.23
2017-08-29T17:51:31.102Z,18.83
2017-08-29T17:53:32.076Z,11.80
2017-08-29T17:55:33.021Z,14.70
2017-08-29T17:57:33.981Z,16.10
2017-08-29T17:59:34.939Z,15.07
2017-08-29T18:01:35.927Z,22.37
2017-08-29T18:03:36.865Z,15.40
2017-08-29T18:05:37.815Z,17.40
2017-08-29T18:07:38.768Z,18.00
2017-08-29T18:09:39.725Z,14.03
2017-08-29T18:11:40.684Z,16.00
2017-08-29T18:13:41.619Z,17.80
2017-08-29T18:15:42.552Z,14.30
2017-08-29T18:17:43.512Z,20.13
2017-08-29T18:19:44.457Z,19.20
2017-08-29T18:21:45.407Z,25.63
2017-08-29T18:23:46.350Z,18.00
2017-08-29T18:25:48.263Z,24.37
2017-08-29T18:27:49.271Z,24.40
2017-08-29T18:29:50.200Z,15.40
2017-08-29T18:31:51.168Z,17.43
2017-08-29T18:33:52.096Z,13.33
2017-08-29T18:35:53.073Z,13.77
2017-08-29T18:37:54.405Z,13.47
2017-08-29T18:39:55.344Z,13.70
2017-08-29T18:41:56.296Z,13.60
2017-08-29T18:43:57.234Z,14.27
2017-08-29T18:45:58.191Z,20.43
2017-08-29T18:47:59.143Z,19.33
2017-08-29T18:50:00.082Z,15.97
2017-08-29T18:52:01.015Z,12.27
2017-08-29T18:54:02.055Z,13.60
2017-08-29T18:56:03.004Z,16.47
2017-08-29T18:58:03.949Z,19.03
2017-08-29T19:00:04.893Z,16.67
2017-08-29T19:02:05.844Z,14.10
2017-08-29T19:04:06.784Z,16.10
2017-08-29T19:06:07.724Z,18.70
2017-08-29T19:08:08.679Z,18.20
2017-08-29T19:10:09.640Z,17.80
2017-08-29T19:12:10.577Z,19.67
2017-08-29T19:14:11.611Z,16.13
2017-08-29T19:16:12.644Z,26.70
2017-08-29T19:18:13.659Z,28.47
2017-08-29T19:20:14.704Z,15.30
2017-08-29T19:22:15.640Z,20.00
2017-08-29T19:24:16.593Z,15.90
2017-08-29T19:26:18.445Z,23.30
2017-08-29T19:28:19.470Z,22.60
2017-08-29T19:30:20.415Z,17.33
2017-08-29T19:32:21.360Z,24.10
2017-08-29T19:34:22.299Z,20.03
2017-08-29T19:36:23.317Z,17.27
2017-08-29T19:38:24.320Z,24.20
2017-08-29T19:40:25.256Z,16.30
2017-08-29T19:42:26.228Z,17.90
2017-08-29T19:44:27.199Z,19.17
2017-08-29T19:46:28.164Z,15.07
2017-08-29T19:48:29.093Z,16.83
2017-08-29T19:50:30.101Z,16.30
2017-08-29T19:52:31.043Z,13.00
2017-08-29T19:54:31.967Z,13.03
2017-08-29T19:56:32.964Z,14.20
2017-08-29T19:58:33.903Z,18.40
2017-08-29T20:00:34.921Z,21.83
2017-08-29T20:02:36.101Z,16.10
2017-08-29T20:04:37.108Z,17.50
2017-08-29T20:06:38.068Z,13.80
2017-08-29T20:08:39.046Z,18.07
2017-08-29T20:10:40.033Z,13.13
2017-08-29T20:12:40.987Z,19.90
2017-08-29T20:14:41.924Z,17.70
2017-08-29T20:16:42.913Z,14.67
2017-08-29T20:18:43.867Z,17.17
2017-08-29T20:20:44.805Z,20.40
2017-08-29T20:22:45.761Z,15.90
2017-08-29T20:24:46.709Z,15.57
2017-08-29T20:26:47.644Z,13.90
2017-08-29T20:28:48.600Z,26.57
2017-08-29T20:30:49.535Z,16.90
2017-08-29T20:32:50.476Z,17.57
2017-08-29T20:34:51.423Z,19.17
2017-08-29T20:36:52.363Z,14.90
2017-08-29T20:38:53.315Z,22.17
2017-08-29T20:40:54.261Z,20.47
2017-08-29T20:42:55.247Z,16.77
2017-08-29T20:44:56.195Z,22.07
2017-08-29T20:46:57.124Z,26.37
2017-08-29T20:48:58.088Z,15.63
2017-08-29T20:50:59.029Z,22.80
2017-08-29T20:52:59.973Z,23.63
2017-08-29T20:55:00.929Z,17.33
2017-08-29T20:57:01.998Z,14.50
2017-08-29T20:59:03.021Z,20.43
2017-08-29T21:01:04.028Z,16.10
2017-08-29T21:03:04.967Z,21.50
2017-08-29T21:05:05.907Z,23.23
2017-08-29T21:07:08.056Z,20.43
2017-08-29T21:11:16.820Z,15.33
2017-08-29T21:13:17.803Z,20.23
2017-08-29T21:15:18.749Z,16.23
2017-08-29T21:17:19.698Z,16.50
2017-08-29T21:19:20.652Z,21.60
2017-08-29T21:21:22.323Z,15.10
2017-08-29T21:23:23.260Z,13.17
2017-08-29T21:25:24.208Z,14.23
2017-08-29T21:27:25.155Z,13.03
2017-08-29T21:29:26.105Z,18.63
2017-08-29T21:31:27.156Z,12.60
2017-08-29T21:33:28.135Z,16.23
2017-08-29T21:35:29.085Z,15.30
2017-08-29T21:37:30.036Z,15.07
2017-08-29T21:39:30.973Z,13.80
2017-08-29T21:41:31.927Z,13.10
2017-08-29T21:43:33.172Z,15.85
2017-08-29T21:45:34.112Z,17.03
2017-08-29T21:47:35.044Z,17.50
2017-08-29T21:49:36.052Z,19.87
2017-08-29T21:51:37.009Z,18.53
2017-08-29T21:53:37.957Z,21.43
2017-08-29T21:55:38.903Z,23.50
2017-08-29T21:57:39.869Z,20.63
2017-08-29T21:59:40.983Z,18.53
2017-08-29T22:01:41.965Z,17.93
2017-08-29T22:03:42.896Z,20.10
2017-08-29T22:05:43.853Z,19.57
2017-08-29T22:07:44.789Z,21.03
2017-08-29T22:09:45.728Z,15.85
2017-08-29T22:11:46.671Z,18.13
2017-08-29T22:13:47.607Z,19.33
2017-08-29T22:15:48.544Z,20.30
2017-08-29T22:17:49.482Z,20.80
2017-08-29T22:19:50.408Z,19.83
2017-08-29T22:21:51.344Z,16.33
2017-08-29T22:23:52.298Z,20.00
2017-08-29T22:25:53.247Z,16.63
2017-08-29T22:27:54.172Z,21.17
2017-08-29T22:29:55.101Z,22.23
2017-08-29T22:31:56.120Z,21.30
2017-08-29T22:33:57.049Z,19.53
2017-08-29T22:35:58.004Z,18.40
2017-08-29T22:37:58.949Z,19.47
2017-08-29T22:39:59.883Z,21.67
2017-08-29T22:42:00.836Z,23.50
2017-08-29T22:44:01.767Z,21.37
2017-08-29T22:46:02.708Z,20.83
2017-08-29T22:48:03.652Z,21.13
2017-08-29T22:50:04.588Z,21.20
2017-08-29T22:52:05.536Z,20.97
2017-08-29T22:54:06.496Z,21.80
2017-08-29T22:56:07.450Z,21.13
2017-08-29T22:58:08.388Z,22.13
2017-08-29T23:00:09.324Z,27.03
2017-08-29T23:02:10.272Z,22.60
2017-08-29T23:04:11.287Z,21.52
2017-08-29T23:06:12.229Z,19.97
2017-08-29T23:08:13.167Z,27.57
2017-08-29T23:10:14.096Z,21.40
2017-08-29T23:12:15.035Z,17.90
2017-08-29T23:14:15.975Z,20.10
2017-08-29T23:16:16.911Z,17.43
2017-08-29T23:18:17.864Z,18.07
2017-08-29T23:20:18.804Z,27.17
2017-08-29T23:22:19.740Z,18.47
2017-08-29T23:24:20.677Z,18.90
2017-08-29T23:26:21.616Z,23.10
2017-08-29T23:28:22.560Z,17.57
2017-08-29T23:30:23.512Z,18.23
2017-08-29T23:32:24.451Z,18.13
2017-08-29T23:34:25.400Z,19.63
2017-08-29T23:36:26.557Z,17.90
2017-08-29T23:38:27.500Z,21.10
2017-08-29T23:40:28.435Z,24.40
2017-08-29T23:42:29.376Z,18.00
2017-08-29T23:44:30.304Z,22.30
2017-08-29T23:46:31.248Z,28.60
2017-08-29T23:48:32.181Z,22.87
2017-08-29T23:50:33.120Z,18.80
2017-08-29T23:52:34.096Z,19.13
2017-08-29T23:54:35.253Z,17.50
2017-08-29T23:56:36.215Z,20.90
2017-08-29T23:58:37.178Z,16.70
